createdAt,value
2023-04-18T00:01:42.118Z,101857.88
2023-04-18T00:04:09.227Z,101858.69
2023-04-18T00:06:36.063Z,101850.94
2023-04-18T00:09:02.895Z,101855.34
2023-04-18T00:11:30.386Z,101865.03
2023-04-18T00:13:59.924Z,101850.81
2023-04-18T00:16:28.253Z,101862.44
2023-04-18T00:18:55.489Z,101855.25
2023-04-18T00:21:22.669Z,101854.22
2023-04-18T00:23:49.333Z,101855.44
2023-04-18T00:26:15.839Z,101853.63
2023-04-18T00:28:46.802Z,101856.19
2023-04-18T00:31:13.490Z,101855.34
2023-04-18T00:33:40.114Z,101850.72
2023-04-18T00:36:06.935Z,101852.63
2023-04-18T00:38:33.929Z,101855.47
2023-04-18T00:41:00.505Z,101859.78
2023-04-18T00:43:27.232Z,101851.94
2023-04-18T00:45:54.158Z,101855.41
2023-04-18T00:48:21.511Z,101859.69
2023-04-18T00:50:48.241Z,101854.56
2023-04-18T00:53:15.547Z,101852.88
2023-04-18T00:55:42.288Z,101851.13
2023-04-18T00:58:09.277Z,101851.03
2023-04-18T01:00:36.138Z,101857.00
2023-04-18T01:03:03.116Z,101856.19
2023-04-18T01:05:29.977Z,101856.13
2023-04-18T01:08:08.809Z,101849.00
2023-04-18T01:10:36.141Z,101852.59
2023-04-18T01:13:16.258Z,101852.63
2023-04-18T01:15:43.579Z,101857.09
2023-04-18T01:18:10.908Z,101859.66
2023-04-18T01:20:41.592Z,101858.13
2023-04-18T01:23:10.879Z,101850.81
2023-04-18T01:25:38.340Z,101856.25
2023-04-18T01:28:06.194Z,101856.09
2023-04-18T01:30:36.006Z,101855.50
2023-04-18T01:33:03.805Z,101860.63
2023-04-18T01:35:30.763Z,101859.72
2023-04-18T01:37:57.618Z,101849.13
2023-04-18T01:40:24.525Z,101850.91
2023-04-18T01:42:51.378Z,101850.91
2023-04-18T01:45:19.446Z,101854.25
2023-04-18T01:47:46.493Z,101852.41
2023-04-18T01:50:13.462Z,101854.25
2023-04-18T01:52:42.479Z,101850.66
2023-04-18T01:55:09.304Z,101847.41
2023-04-18T01:57:36.806Z,101845.69
2023-04-18T02:00:07.772Z,101846.47
2023-04-18T02:02:43.489Z,101844.75
2023-04-18T02:05:10.259Z,101838.41
2023-04-18T02:07:39.847Z,101849.88
2023-04-18T02:10:08.948Z,101850.81
2023-04-18T02:12:35.459Z,101843.78
2023-04-18T02:15:02.150Z,101842.13
2023-04-18T02:17:31.171Z,101839.56
2023-04-18T02:19:57.998Z,101835.09
2023-04-18T02:22:24.591Z,101841.09
2023-04-18T02:24:51.573Z,101837.56
2023-04-18T02:27:18.166Z,101843.09
2023-04-18T02:29:44.883Z,101842.09
2023-04-18T02:32:11.473Z,101840.44
2023-04-18T02:34:38.229Z,101846.44
2023-04-18T02:37:04.880Z,101837.72
2023-04-18T02:39:32.360Z,101850.81
2023-04-18T02:41:59.044Z,101850.97
2023-04-18T02:44:25.725Z,101840.53
2023-04-18T02:46:52.416Z,101842.19
2023-04-18T02:49:19.212Z,101852.69
2023-04-18T02:51:45.889Z,101849.25
2023-04-18T02:54:12.759Z,101850.06
2023-04-18T02:57:08.832Z,101848.34
2023-04-18T02:59:55.668Z,101852.72
2023-04-18T03:02:43.172Z,101856.13
2023-04-18T03:05:23.106Z,101859.75
2023-04-18T03:07:51.158Z,101853.63
2023-04-18T03:10:19.246Z,101856.16
2023-04-18T03:12:47.739Z,101856.47
2023-04-18T03:15:16.759Z,101858.16
2023-04-18T03:17:43.688Z,101862.50
2023-04-18T03:20:12.781Z,101858.94
2023-04-18T03:22:40.046Z,101853.50
2023-04-18T03:25:07.146Z,101859.66
2023-04-18T03:27:43.695Z,101859.47
2023-04-18T03:30:13.393Z,101857.91
2023-04-18T03:32:42.273Z,101858.69
2023-04-18T03:35:09.444Z,101856.28
2023-04-18T03:37:36.213Z,101856.94
2023-04-18T03:40:05.476Z,101864.06
2023-04-18T03:42:32.104Z,101858.06
2023-04-18T03:44:58.823Z,101857.19
2023-04-18T03:47:25.997Z,101859.72
2023-04-18T03:49:56.532Z,101865.06
2023-04-18T03:52:25.073Z,101868.63
2023-04-18T03:54:51.651Z,101866.09
2023-04-18T03:57:23.166Z,101873.88
2023-04-18T03:59:49.954Z,101880.03
2023-04-18T04:02:16.612Z,101870.34
2023-04-18T04:04:43.329Z,101872.97
2023-04-18T04:07:12.454Z,101880.81
2023-04-18T04:09:39.132Z,101875.72
2023-04-18T04:12:06.555Z,101884.25
2023-04-18T04:14:33.874Z,101877.47
2023-04-18T04:17:00.474Z,101886.22
2023-04-18T04:19:28.590Z,101884.53
2023-04-18T04:22:06.772Z,101894.13
2023-04-18T04:24:33.767Z,101886.28
2023-04-18T04:27:01.247Z,101895.03
2023-04-18T04:29:29.133Z,101898.50
2023-04-18T04:31:59.209Z,101902.00
2023-04-18T04:34:34.470Z,101900.28
2023-04-18T04:37:05.257Z,101908.97
2023-04-18T04:39:38.084Z,101906.38
2023-04-18T04:42:28.570Z,101909.03
2023-04-18T04:45:03.679Z,101912.56
2023-04-18T04:47:30.439Z,101915.16
2023-04-18T04:49:57.046Z,101912.50
2023-04-18T04:52:23.696Z,101916.97
2023-04-18T04:54:51.362Z,101913.41
2023-04-18T04:57:20.875Z,101918.69
2023-04-18T04:59:47.613Z,101925.66
2023-04-18T05:02:14.373Z,101924.81
2023-04-18T05:04:41.063Z,101931.84
2023-04-18T05:07:07.702Z,101932.59
2023-04-18T05:09:34.236Z,101942.25
2023-04-18T05:12:01.921Z,101933.56
2023-04-18T05:14:28.487Z,101937.09
2023-04-18T05:16:55.567Z,101928.31
2023-04-18T05:19:22.191Z,101933.56
2023-04-18T05:21:48.779Z,101931.81
2023-04-18T05:24:15.500Z,101936.25
2023-04-18T05:26:43.076Z,101930.06
2023-04-18T05:29:09.668Z,101928.41
2023-04-18T05:31:36.417Z,101922.19
2023-04-18T05:34:03.185Z,101922.97
2023-04-18T05:36:29.749Z,101921.31
2023-04-18T05:38:56.310Z,101921.31
2023-04-18T05:41:23.079Z,101930.06
2023-04-18T05:44:01.907Z,101923.94
2023-04-18T05:46:31.786Z,101930.03
2023-04-18T05:48:58.425Z,101935.31
2023-04-18T05:51:24.990Z,101939.56
2023-04-18T05:53:51.533Z,101938.63
2023-04-18T05:56:18.105Z,101943.88
2023-04-18T05:58:54.533Z,101944.75
2023-04-18T06:01:21.561Z,101953.50
2023-04-18T06:03:48.404Z,101954.47
2023-04-18T06:06:16.189Z,101952.50
2023-04-18T06:08:42.819Z,101959.81
2023-04-18T06:11:09.506Z,101959.69
2023-04-18T06:13:36.779Z,101957.97
2023-04-18T06:16:03.614Z,101959.72
2023-04-18T06:18:30.387Z,101970.16
2023-04-18T06:20:57.010Z,101971.91
2023-04-18T06:23:23.560Z,101972.81
2023-04-18T06:25:52.557Z,101967.66
2023-04-18T06:28:19.104Z,101973.75
2023-04-18T06:30:45.697Z,101981.69
2023-04-18T06:33:12.267Z,101978.88
2023-04-18T06:35:38.884Z,101991.19
2023-04-18T06:38:05.519Z,101980.69
2023-04-18T06:40:32.162Z,101984.13
2023-04-18T06:42:58.743Z,101993.97
2023-04-18T06:45:25.423Z,101985.94
2023-04-18T06:47:53.176Z,101982.56
2023-04-18T06:50:19.844Z,101991.38
2023-04-18T06:52:46.434Z,101984.09
2023-04-18T06:55:13.618Z,101994.72
2023-04-18T06:57:41.262Z,101987.78
2023-04-18T07:00:08.707Z,101985.97
2023-04-18T07:02:38.347Z,101984.16
2023-04-18T07:05:05.780Z,101991.00
2023-04-18T07:07:33.012Z,101983.88
2023-04-18T07:10:00.515Z,101987.50
2023-04-18T07:12:27.504Z,101993.31
2023-04-18T07:14:55.087Z,101987.28
2023-04-18T07:17:21.632Z,101993.13
2023-04-18T07:19:48.300Z,101994.91
2023-04-18T07:22:14.905Z,101995.56
2023-04-18T07:24:41.537Z,101988.72
2023-04-18T07:27:11.829Z,101997.19
2023-04-18T07:29:38.534Z,101993.72
2023-04-18T07:32:06.898Z,101993.59
2023-04-18T07:34:36.902Z,101995.25
2023-04-18T07:37:03.492Z,102001.06
2023-04-18T07:39:32.374Z,101993.44
2023-04-18T07:41:58.958Z,101996.69
2023-04-18T07:44:25.620Z,101998.38
2023-04-18T07:46:52.171Z,101990.63
2023-04-18T07:49:18.857Z,101992.97
2023-04-18T07:51:45.384Z,101991.28
2023-04-18T07:54:12.041Z,101989.47
2023-04-18T07:56:38.612Z,101994.53
2023-04-18T07:59:05.410Z,101989.34
2023-04-18T08:01:32.193Z,101985.88
2023-04-18T08:04:01.973Z,101985.88
2023-04-18T08:06:29.406Z,101988.28
2023-04-18T08:08:55.978Z,101984.41
2023-04-18T08:11:22.634Z,101989.41
2023-04-18T08:13:49.233Z,101993.03
2023-04-18T08:16:17.475Z,101996.53
2023-04-18T08:18:44.289Z,101982.78
2023-04-18T08:21:10.960Z,101990.19
2023-04-18T08:23:37.555Z,101992.91
2023-04-18T08:26:04.237Z,101988.59
2023-04-18T08:28:30.821Z,101991.59
2023-04-18T08:30:57.471Z,101985.34
2023-04-18T08:33:24.571Z,101984.75
2023-04-18T08:35:51.551Z,101991.72
2023-04-18T08:38:18.742Z,101997.22
2023-04-18T08:40:45.705Z,101988.72
2023-04-18T08:43:16.792Z,101991.66
2023-04-18T08:45:44.269Z,101998.47
2023-04-18T08:48:14.862Z,101998.19
2023-04-18T08:50:41.676Z,101988.97
2023-04-18T08:53:08.346Z,101999.28
2023-04-18T08:55:35.760Z,102003.06
2023-04-18T08:58:03.065Z,102002.09
2023-04-18T09:00:30.517Z,102004.81
2023-04-18T09:02:57.612Z,102005.72
2023-04-18T09:05:25.535Z,101997.75
2023-04-18T09:07:53.119Z,102011.50
2023-04-18T09:10:29.006Z,102004.84
2023-04-18T09:12:57.510Z,101997.28
2023-04-18T09:15:27.134Z,102008.19
2023-04-18T09:17:54.470Z,102003.09
2023-04-18T09:20:31.114Z,101999.25
2023-04-18T09:23:00.898Z,102007.91
2023-04-18T09:25:35.877Z,102010.75
2023-04-18T09:28:03.349Z,102012.25
2023-04-18T09:30:36.996Z,101999.63
2023-04-18T09:33:04.967Z,101997.13
2023-04-18T09:35:31.723Z,102001.22
2023-04-18T09:37:58.364Z,101992.75
2023-04-18T09:40:25.052Z,101998.00
2023-04-18T09:42:55.638Z,102000.28
2023-04-18T09:45:23.008Z,102001.91
2023-04-18T09:47:49.698Z,101995.19
2023-04-18T09:50:18.178Z,102006.56
2023-04-18T09:52:45.556Z,102007.97
2023-04-18T09:55:16.572Z,101998.50
2023-04-18T09:57:46.966Z,101991.47
2023-04-18T10:00:24.514Z,101992.38
2023-04-18T10:02:52.840Z,101994.78
2023-04-18T10:05:21.337Z,101998.28
2023-04-18T10:07:49.145Z,102001.91
2023-04-18T10:10:15.943Z,102002.53
2023-04-18T10:12:42.650Z,102006.03
2023-04-18T10:15:09.907Z,102001.00
2023-04-18T10:18:04.321Z,102007.78
2023-04-18T10:20:33.352Z,102005.00
2023-04-18T10:23:00.581Z,102004.19
2023-04-18T10:25:39.280Z,102003.75
2023-04-18T10:28:27.559Z,102002.13
2023-04-18T10:30:56.292Z,102005.31
2023-04-18T10:33:31.072Z,101999.50
2023-04-18T10:36:12.664Z,101996.41
2023-04-18T10:39:05.832Z,101997.56
2023-04-18T10:41:33.334Z,101994.34
2023-04-18T10:44:08.052Z,101990.22
2023-04-18T10:46:38.792Z,101993.91
2023-04-18T10:49:17.643Z,101993.94
2023-04-18T10:51:45.245Z,101995.53
2023-04-18T10:54:13.714Z,101997.66
2023-04-18T10:56:40.625Z,101989.88
2023-04-18T10:59:09.540Z,101990.38
2023-04-18T11:01:37.232Z,101985.28
2023-04-18T11:04:11.502Z,101990.72
2023-04-18T11:06:48.949Z,101974.91
2023-04-18T11:09:15.971Z,101976.09
2023-04-18T11:11:43.481Z,101980.47
2023-04-18T11:14:13.232Z,101980.91
2023-04-18T11:16:40.142Z,101988.31
2023-04-18T11:19:23.661Z,101986.41
2023-04-18T11:21:51.356Z,101983.72
2023-04-18T11:24:22.071Z,101982.91
2023-04-18T11:26:48.717Z,101976.84
2023-04-18T11:29:17.439Z,101977.47
2023-04-18T11:31:51.194Z,101976.03
2023-04-18T11:34:17.941Z,101968.50
2023-04-18T11:36:47.961Z,101972.00
2023-04-18T11:39:14.586Z,101972.09
2023-04-18T11:41:41.813Z,101971.09
2023-04-18T11:44:08.445Z,101968.25
2023-04-18T11:46:39.689Z,101967.63
2023-04-18T11:49:06.293Z,101964.78
2023-04-18T11:51:34.637Z,101966.66
2023-04-18T11:54:01.498Z,101965.56
2023-04-18T11:56:28.135Z,101960.78
2023-04-18T11:58:54.727Z,101965.81
2023-04-18T12:01:21.237Z,101966.56
2023-04-18T12:04:20.603Z,101967.75
2023-04-18T12:06:49.945Z,101965.44
2023-04-18T12:09:17.311Z,101970.28
2023-04-18T12:11:43.940Z,101956.47
2023-04-18T12:14:21.534Z,101963.31
2023-04-18T12:16:53.620Z,101964.97
2023-04-18T12:19:25.765Z,101960.78
2023-04-18T12:21:56.856Z,101962.72
2023-04-18T12:24:27.439Z,101952.47
2023-04-18T12:26:55.209Z,101972.72
2023-04-18T12:29:21.758Z,101969.22
2023-04-18T12:31:48.443Z,101955.28
2023-04-18T12:34:15.223Z,101947.59
2023-04-18T12:36:42.455Z,101952.44
2023-04-18T12:39:09.746Z,101956.63
2023-04-18T12:41:36.401Z,101950.78
2023-04-18T12:44:05.801Z,101958.19
2023-04-18T12:46:32.527Z,101946.59
2023-04-18T12:48:59.170Z,101947.00
2023-04-18T12:51:26.669Z,101943.00
2023-04-18T12:53:53.556Z,101949.41
2023-04-18T12:56:22.079Z,101950.28
2023-04-18T12:58:49.135Z,101946.94
2023-04-18T13:01:16.524Z,101950.28
2023-04-18T13:03:43.264Z,101948.69
2023-04-18T13:06:09.960Z,101938.25
2023-04-18T13:08:37.537Z,101941.47
2023-04-18T13:11:04.225Z,101940.53
2023-04-18T13:13:30.785Z,101930.97
2023-04-18T13:15:57.368Z,101930.47
2023-04-18T13:18:23.939Z,101929.69
2023-04-18T13:20:50.608Z,101950.09
2023-04-18T13:23:17.549Z,101945.94
2023-04-18T13:25:44.153Z,101952.22
2023-04-18T13:28:10.808Z,101944.50
2023-04-18T13:30:37.502Z,101944.22
2023-04-18T13:33:04.178Z,101946.16
2023-04-18T13:35:30.924Z,101951.78
2023-04-18T13:37:57.444Z,101941.69
2023-04-18T13:40:25.579Z,101937.00
2023-04-18T13:42:52.146Z,101937.44
2023-04-18T13:45:18.816Z,101934.50
2023-04-18T13:47:45.434Z,101933.13
2023-04-18T13:50:12.292Z,101921.13
2023-04-18T13:52:38.830Z,101920.78
2023-04-18T13:55:05.690Z,101928.50
2023-04-18T13:57:33.354Z,101915.94
2023-04-18T13:59:59.989Z,101921.53
2023-04-18T14:02:26.753Z,101921.59
2023-04-18T14:04:54.944Z,101928.25
2023-04-18T14:07:21.694Z,101924.69
2023-04-18T14:09:48.287Z,101923.50
2023-04-18T14:12:17.102Z,101919.91
2023-04-18T14:14:43.692Z,101911.16
2023-04-18T14:17:10.342Z,101922.66
2023-04-18T14:19:36.919Z,101924.66
2023-04-18T14:22:03.421Z,101927.19
2023-04-18T14:24:30.037Z,101918.81
2023-04-18T14:26:56.685Z,101926.41
2023-04-18T14:29:23.297Z,101927.28
2023-04-18T14:31:50.513Z,101921.00
2023-04-18T14:34:17.134Z,101928.94
2023-04-18T14:36:43.676Z,101923.81
2023-04-18T14:39:11.066Z,101923.63
2023-04-18T14:41:38.069Z,101928.53
2023-04-18T14:44:04.795Z,101922.47
2023-04-18T14:46:31.492Z,101920.25
2023-04-18T14:48:58.256Z,101918.31
2023-04-18T14:51:24.811Z,101918.59
2023-04-18T14:53:51.694Z,101909.66
2023-04-18T14:56:21.124Z,101918.50
2023-04-18T14:58:48.186Z,101911.25
2023-04-18T15:01:16.952Z,101909.91
2023-04-18T15:03:43.667Z,101909.63
2023-04-18T15:06:11.095Z,101908.53
2023-04-18T15:08:41.188Z,101914.88
2023-04-18T15:11:08.223Z,101913.88
2023-04-18T15:13:34.969Z,101901.78
2023-04-18T15:16:01.851Z,101909.91
2023-04-18T15:18:28.944Z,101908.25
2023-04-18T15:20:57.045Z,101903.47
2023-04-18T15:23:23.710Z,101902.56
2023-04-18T15:25:50.474Z,101908.16
2023-04-18T15:28:18.660Z,101908.47
2023-04-18T15:30:45.851Z,101899.28
2023-04-18T15:33:13.310Z,101901.41
2023-04-18T15:35:43.013Z,101904.38
2023-04-18T15:38:09.648Z,101897.31
2023-04-18T15:40:36.637Z,101907.56
2023-04-18T15:43:04.050Z,101905.41
2023-04-18T15:45:30.618Z,101900.81
2023-04-18T15:47:57.347Z,101894.19
2023-04-18T15:50:24.004Z,101895.78
2023-04-18T15:52:53.327Z,101895.38
2023-04-18T15:55:19.936Z,101890.41
2023-04-18T15:57:46.966Z,101894.06
2023-04-18T16:00:16.542Z,101900.72
2023-04-18T16:02:44.115Z,101889.78
2023-04-18T16:05:12.312Z,101898.38
2023-04-18T16:07:42.558Z,101898.59
2023-04-18T16:10:10.514Z,101887.75
2023-04-18T16:12:37.800Z,101893.38
2023-04-18T16:15:10.792Z,101890.41
2023-04-18T16:17:37.700Z,101886.31
2023-04-18T16:20:06.160Z,101894.28
2023-04-18T16:22:32.938Z,101890.06
2023-04-18T16:24:59.470Z,101895.00
2023-04-18T16:27:33.384Z,101896.16
2023-04-18T16:30:07.765Z,101897.75
2023-04-18T16:32:34.391Z,101897.19
2023-04-18T16:35:01.048Z,101894.78
2023-04-18T16:37:27.668Z,101890.53
2023-04-18T16:39:54.168Z,101908.06
2023-04-18T16:42:21.927Z,101902.56
2023-04-18T16:44:48.457Z,101894.34
2023-04-18T16:47:15.087Z,101895.78
2023-04-18T16:49:41.896Z,101893.75
2023-04-18T16:52:08.488Z,101881.19
2023-04-18T16:54:35.307Z,101890.28
2023-04-18T16:57:02.863Z,101890.53
2023-04-18T16:59:29.416Z,101885.16
2023-04-18T17:01:56.095Z,101895.00
2023-04-18T17:04:23.446Z,101893.88
2023-04-18T17:06:51.865Z,101893.44
2023-04-18T17:09:29.265Z,101893.31
2023-04-18T17:11:57.962Z,101891.53
2023-04-18T17:14:24.554Z,101891.28
2023-04-18T17:16:53.307Z,101887.94
2023-04-18T17:19:20.384Z,101894.22
2023-04-18T17:21:47.176Z,101898.69
2023-04-18T17:24:14.381Z,101898.28
2023-04-18T17:26:46.372Z,101896.16
2023-04-18T17:29:15.254Z,101896.41
2023-04-18T17:31:42.134Z,101907.75
2023-04-18T17:34:08.801Z,101902.06
2023-04-18T17:36:35.389Z,101903.03
2023-04-18T17:39:08.285Z,101899.94
2023-04-18T17:44:17.293Z,101905.44
2023-04-18T17:46:43.822Z,101907.72
2023-04-18T17:49:11.424Z,101905.69
2023-04-18T17:51:44.093Z,101913.66
2023-04-18T17:54:13.096Z,101918.44
2023-04-18T17:56:42.212Z,101914.88
2023-04-18T17:59:09.897Z,101911.19
2023-04-18T18:01:36.557Z,101918.50
2023-04-18T18:04:03.285Z,101912.84
2023-04-18T18:06:29.978Z,101921.13
2023-04-18T18:08:59.654Z,101923.38
2023-04-18T18:11:29.993Z,101929.31
2023-04-18T18:13:57.529Z,101923.31
2023-04-18T18:16:24.361Z,101929.16
2023-04-18T18:18:51.140Z,101930.91
2023-04-18T18:21:18.070Z,101932.72
2023-04-18T18:23:44.752Z,101925.94
2023-04-18T18:26:11.887Z,101935.97
2023-04-18T18:28:38.549Z,101937.81
2023-04-18T18:31:05.125Z,101938.25
2023-04-18T18:33:31.710Z,101946.69
2023-04-18T18:36:00.625Z,101944.34
2023-04-18T18:38:27.280Z,101948.72
2023-04-18T18:40:53.805Z,101951.66
2023-04-18T18:43:20.469Z,101958.97
2023-04-18T18:45:47.141Z,101950.94
2023-04-18T18:48:14.736Z,101956.75
2023-04-18T18:50:41.971Z,101953.44
2023-04-18T18:53:08.591Z,101961.91
2023-04-18T18:55:35.106Z,101966.72
2023-04-18T18:58:04.875Z,101957.38
2023-04-18T19:00:31.473Z,101966.09
2023-04-18T19:02:58.130Z,101962.28
2023-04-18T19:05:25.767Z,101965.88
2023-04-18T19:07:53.631Z,101967.75
2023-04-18T19:10:20.178Z,101975.16
2023-04-18T19:12:46.819Z,101967.84
2023-04-18T19:15:13.371Z,101967.34
2023-04-18T19:17:41.597Z,101971.00
2023-04-18T19:20:09.085Z,101966.19
2023-04-18T19:22:35.725Z,101977.22
2023-04-18T19:25:02.981Z,101975.03
2023-04-18T19:27:29.700Z,101978.03
2023-04-18T19:29:56.296Z,101976.25
2023-04-18T19:32:22.897Z,101980.44
2023-04-18T19:34:58.300Z,101983.66
2023-04-18T19:37:24.899Z,101977.22
2023-04-18T19:39:54.096Z,101989.50
2023-04-18T19:42:20.849Z,101982.19
2023-04-18T19:44:47.542Z,101986.03
2023-04-18T19:47:23.469Z,101990.44
2023-04-18T19:49:50.062Z,101987.50
2023-04-18T19:52:18.432Z,101991.94
2023-04-18T19:54:45.091Z,101989.22
2023-04-18T19:57:13.832Z,101991.59
2023-04-18T19:59:40.431Z,101991.41
2023-04-18T20:02:07.079Z,101998.22
2023-04-18T20:04:34.284Z,101994.94
2023-04-18T20:07:01.299Z,101986.47
2023-04-18T20:09:27.973Z,101996.19
2023-04-18T20:11:54.540Z,102000.75
2023-04-18T20:14:21.232Z,101998.44
2023-04-18T20:16:49.698Z,101995.19
2023-04-18T20:19:17.888Z,101996.56
2023-04-18T20:21:44.593Z,101996.66
2023-04-18T20:24:11.214Z,101999.38
2023-04-18T20:26:37.727Z,101994.19
2023-04-18T20:29:04.349Z,101996.72
2023-04-18T20:31:30.922Z,102001.41
2023-04-18T20:33:57.536Z,101996.75
2023-04-18T20:36:25.564Z,102003.81
2023-04-18T20:38:52.162Z,102003.59
2023-04-18T20:41:18.904Z,102000.88
2023-04-18T20:43:46.949Z,102004.50
2023-04-18T20:46:14.085Z,102010.13
2023-04-18T20:48:40.802Z,102003.09
2023-04-18T20:51:07.400Z,102013.16
2023-04-18T20:53:34.057Z,102004.75
2023-04-18T20:56:01.190Z,102002.97
2023-04-18T20:58:27.727Z,102008.44
2023-04-18T21:00:57.115Z,102016.44
2023-04-18T21:03:23.898Z,102012.75
2023-04-18T21:05:50.510Z,102014.09
2023-04-18T21:08:17.188Z,102011.56
2023-04-18T21:10:44.513Z,102017.66
2023-04-18T21:13:12.652Z,102017.88
2023-04-18T21:15:40.761Z,102015.28
2023-04-18T21:18:07.412Z,102022.03
2023-04-18T21:20:36.382Z,102024.91
2023-04-18T21:23:03.254Z,102029.63
2023-04-18T21:25:32.868Z,102024.66
2023-04-18T21:28:00.166Z,102022.66
2023-04-18T21:30:26.728Z,102020.28
2023-04-18T21:32:53.554Z,102020.41
2023-04-18T21:35:24.648Z,102030.13
2023-04-18T21:37:58.005Z,102022.38
2023-04-18T21:40:29.130Z,102029.06
2023-04-18T21:42:57.570Z,102026.59
2023-04-18T21:45:24.242Z,102022.25
2023-04-18T21:47:51.093Z,102020.56
2023-04-18T21:50:17.765Z,102029.06
2023-04-18T21:52:44.335Z,102023.03
2023-04-18T21:55:10.947Z,102029.09
2023-04-18T21:57:37.536Z,102018.34
2023-04-18T22:00:07.716Z,102013.53
2023-04-18T22:02:35.986Z,102016.81
2023-04-18T22:05:02.999Z,102012.59
2023-04-18T22:07:29.690Z,102008.25
2023-04-18T22:09:58.525Z,102017.31
2023-04-18T22:12:26.482Z,102014.88
2023-04-18T22:14:53.177Z,102001.41
2023-04-18T22:17:21.976Z,101998.06
2023-04-18T22:19:55.730Z,101998.06
2023-04-18T22:22:22.378Z,102003.28
2023-04-18T22:24:49.005Z,102006.75
2023-04-18T22:27:15.634Z,101999.50
2023-04-18T22:29:44.466Z,102000.47
2023-04-18T22:32:11.045Z,101996.81
2023-04-18T22:34:37.589Z,101996.72
2023-04-18T22:37:04.232Z,102003.66
2023-04-18T22:39:31.223Z,101993.97
2023-04-18T22:41:57.802Z,101993.09
2023-04-18T22:44:24.324Z,101997.59
2023-04-18T22:46:54.483Z,101996.56
2023-04-18T22:49:22.256Z,101999.16
2023-04-18T22:51:49.600Z,102002.25
2023-04-18T22:54:16.407Z,101995.03
2023-04-18T22:56:43.170Z,101995.94
2023-04-18T22:59:09.740Z,101997.19
2023-04-18T23:01:36.297Z,102006.94
2023-04-18T23:04:03.178Z,101992.88
2023-04-18T23:06:29.978Z,101993.69
2023-04-18T23:08:56.593Z,101999.00
2023-04-18T23:11:23.196Z,101999.75
2023-04-18T23:13:49.858Z,101997.94
2023-04-18T23:16:18.889Z,101999.00
2023-04-18T23:18:45.649Z,101994.16
2023-04-18T23:21:15.611Z,101988.44
2023-04-18T23:23:42.190Z,102000.91
2023-04-18T23:26:15.424Z,102001.03
2023-04-18T23:28:42.427Z,101999.34
2023-04-18T23:31:09.302Z,102002.84
2023-04-18T23:33:36.569Z,101994.38
2023-04-18T23:36:03.393Z,101994.53
2023-04-18T23:38:30.710Z,101987.66
2023-04-18T23:40:57.284Z,101985.75
2023-04-18T23:43:26.942Z,101986.78
2023-04-18T23:45:53.546Z,101982.44
2023-04-18T23:48:20.247Z,101991.31
2023-04-18T23:50:50.318Z,101985.13
2023-04-18T23:53:19.929Z,101980.81
2023-04-18T23:55:48.017Z,101983.38
2023-04-18T23:58:16.099Z,101986.03
